sensor_id;sensor_type;location;lat;lon;timestamp;pressure;altitude;pressure_sealevel;temperature;humidity
76337;BME280;65157;50.082;18.178;2023-04-24T00:00:55;98275.15;;;13.90;63.72
76337;BME280;65157;50.082;18.178;2023-04-24T00:03:25;98273.16;;;13.88;63.64
76337;BME280;65157;50.082;18.178;2023-04-24T00:05:52;98270.70;;;13.88;63.57
76337;BME280;65157;50.082;18.178;2023-04-24T00:08:19;98272.14;;;13.87;63.49
76337;BME280;65157;50.082;18.178;2023-04-24T00:10:46;98269.45;;;13.86;63.40
76337;BME280;65157;50.082;18.178;2023-04-24T00:13:12;98266.16;;;13.85;63.33
76337;BME280;65157;50.082;18.178;2023-04-24T00:15:39;98263.96;;;13.83;63.34
76337;BME280;65157;50.082;18.178;2023-04-24T00:18:06;98265.60;;;13.83;63.59
76337;BME280;65157;50.082;18.178;2023-04-24T00:20:34;98259.05;;;13.80;63.89
76337;BME280;65157;50.082;18.178;2023-04-24T00:23:00;98258.73;;;13.77;63.92
76337;BME280;65157;50.082;18.178;2023-04-24T00:25:27;98253.92;;;13.75;63.99
76337;BME280;65157;50.082;18.178;2023-04-24T00:27:54;98251.98;;;13.72;63.97
76337;BME280;65157;50.082;18.178;2023-04-24T00:30:20;98250.65;;;13.69;63.94
76337;BME280;65157;50.082;18.178;2023-04-24T00:32:47;98251.34;;;13.67;63.60
76337;BME280;65157;50.082;18.178;2023-04-24T00:35:14;98248.17;;;13.66;63.40
76337;BME280;65157;50.082;18.178;2023-04-24T00:37:40;98243.08;;;13.63;63.54
76337;BME280;65157;50.082;18.178;2023-04-24T00:40:07;98243.66;;;13.65;63.51
76337;BME280;65157;50.082;18.178;2023-04-24T00:42:35;98245.31;;;13.61;63.68
76337;BME280;65157;50.082;18.178;2023-04-24T00:45:02;98237.15;;;13.59;63.75
76337;BME280;65157;50.082;18.178;2023-04-24T00:47:29;98233.93;;;13.57;63.56
76337;BME280;65157;50.082;18.178;2023-04-24T00:49:56;98228.58;;;13.52;63.19
76337;BME280;65157;50.082;18.178;2023-04-24T00:52:25;98231.58;;;13.57;62.84
76337;BME280;65157;50.082;18.178;2023-04-24T00:54:52;98226.83;;;13.57;62.80
76337;BME280;65157;50.082;18.178;2023-04-24T00:57:18;98226.06;;;13.55;62.36
76337;BME280;65157;50.082;18.178;2023-04-24T00:59:46;98226.10;;;13.54;62.17
76337;BME280;65157;50.082;18.178;2023-04-24T01:02:12;98224.98;;;13.55;61.95
76337;BME280;65157;50.082;18.178;2023-04-24T01:04:40;98227.25;;;13.56;61.71
76337;BME280;65157;50.082;18.178;2023-04-24T01:07:06;98225.14;;;13.55;61.76
76337;BME280;65157;50.082;18.178;2023-04-24T01:09:34;98224.72;;;13.54;62.11
76337;BME280;65157;50.082;18.178;2023-04-24T01:12:01;98220.79;;;13.52;62.30
76337;BME280;65157;50.082;18.178;2023-04-24T01:14:30;98220.77;;;13.50;62.62
76337;BME280;65157;50.082;18.178;2023-04-24T01:16:57;98224.34;;;13.49;62.44
76337;BME280;65157;50.082;18.178;2023-04-24T01:19:24;98228.30;;;13.49;62.08
76337;BME280;65157;50.082;18.178;2023-04-24T01:21:54;98223.30;;;13.46;62.05
76337;BME280;65157;50.082;18.178;2023-04-24T01:24:25;98221.73;;;13.46;62.00
76337;BME280;65157;50.082;18.178;2023-04-24T01:26:51;98223.89;;;13.46;61.80
76337;BME280;65157;50.082;18.178;2023-04-24T01:29:19;98222.52;;;13.45;61.65
76337;BME280;65157;50.082;18.178;2023-04-24T01:31:46;98223.52;;;13.43;61.97
76337;BME280;65157;50.082;18.178;2023-04-24T01:34:13;98206.61;;;13.32;62.07
76337;BME280;65157;50.082;18.178;2023-04-24T01:36:41;98216.46;;;13.43;61.99
76337;BME280;65157;50.082;18.178;2023-04-24T01:39:08;98219.25;;;13.44;61.87
76337;BME280;65157;50.082;18.178;2023-04-24T01:41:34;98215.69;;;13.44;61.73
76337;BME280;65157;50.082;18.178;2023-04-24T01:44:01;98218.70;;;13.44;61.94
76337;BME280;65157;50.082;18.178;2023-04-24T01:46:32;98217.45;;;13.42;62.08
76337;BME280;65157;50.082;18.178;2023-04-24T01:49:00;98213.93;;;13.41;61.97
76337;BME280;65157;50.082;18.178;2023-04-24T01:51:27;98215.91;;;13.41;61.90
76337;BME280;65157;50.082;18.178;2023-04-24T01:53:54;98213.63;;;13.38;61.68
76337;BME280;65157;50.082;18.178;2023-04-24T01:56:23;98207.89;;;13.36;61.58
76337;BME280;65157;50.082;18.178;2023-04-24T01:58:52;98208.65;;;13.36;61.31
76337;BME280;65157;50.082;18.178;2023-04-24T02:01:20;98206.85;;;13.34;61.44
76337;BME280;65157;50.082;18.178;2023-04-24T02:03:47;98206.24;;;13.32;61.23
76337;BME280;65157;50.082;18.178;2023-04-24T02:06:14;98204.58;;;13.31;61.07
76337;BME280;65157;50.082;18.178;2023-04-24T02:08:41;98196.45;;;13.25;61.02
76337;BME280;65157;50.082;18.178;2023-04-24T02:11:09;98201.72;;;13.26;61.02
76337;BME280;65157;50.082;18.178;2023-04-24T02:13:36;98205.38;;;13.24;60.77
76337;BME280;65157;50.082;18.178;2023-04-24T02:16:03;98196.30;;;13.22;60.93
76337;BME280;65157;50.082;18.178;2023-04-24T02:18:31;98197.00;;;13.23;60.97
76337;BME280;65157;50.082;18.178;2023-04-24T02:20:58;98194.10;;;13.21;60.93
76337;BME280;65157;50.082;18.178;2023-04-24T02:23:24;98187.68;;;13.22;60.72
76337;BME280;65157;50.082;18.178;2023-04-24T02:25:51;98177.23;;;13.13;60.51
76337;BME280;65157;50.082;18.178;2023-04-24T02:28:18;98190.11;;;13.22;60.33
76337;BME280;65157;50.082;18.178;2023-04-24T02:30:45;98186.94;;;13.22;60.06
76337;BME280;65157;50.082;18.178;2023-04-24T02:33:11;98180.33;;;13.18;60.08
76337;BME280;65157;50.082;18.178;2023-04-24T02:35:38;98184.52;;;13.21;59.99
76337;BME280;65157;50.082;18.178;2023-04-24T02:38:05;98181.90;;;13.21;60.19
76337;BME280;65157;50.082;18.178;2023-04-24T02:40:31;98177.73;;;13.20;60.30
76337;BME280;65157;50.082;18.178;2023-04-24T02:42:58;98177.86;;;13.17;60.35
76337;BME280;65157;50.082;18.178;2023-04-24T02:45:25;98177.69;;;13.17;60.21
76337;BME280;65157;50.082;18.178;2023-04-24T02:47:52;98178.84;;;13.16;60.25
76337;BME280;65157;50.082;18.178;2023-04-24T02:50:19;98169.13;;;13.11;60.21
76337;BME280;65157;50.082;18.178;2023-04-24T02:52:46;98179.77;;;13.13;60.00
76337;BME280;65157;50.082;18.178;2023-04-24T02:55:12;98176.70;;;13.12;59.88
76337;BME280;65157;50.082;18.178;2023-04-24T02:57:39;98159.36;;;13.01;59.99
76337;BME280;65157;50.082;18.178;2023-04-24T03:00:06;98176.73;;;13.09;60.04
76337;BME280;65157;50.082;18.178;2023-04-24T03:02:33;98178.00;;;13.08;60.07
76337;BME280;65157;50.082;18.178;2023-04-24T03:05:00;98174.89;;;13.07;60.04
76337;BME280;65157;50.082;18.178;2023-04-24T03:07:27;98176.66;;;13.07;59.83
76337;BME280;65157;50.082;18.178;2023-04-24T03:09:54;98172.66;;;13.05;59.81
76337;BME280;65157;50.082;18.178;2023-04-24T03:12:20;98171.50;;;13.04;59.94
76337;BME280;65157;50.082;18.178;2023-04-24T03:14:47;98169.92;;;13.01;60.24
76337;BME280;65157;50.082;18.178;2023-04-24T03:17:14;98171.98;;;13.00;60.39
76337;BME280;65157;50.082;18.178;2023-04-24T03:19:41;98172.83;;;12.98;60.58
76337;BME280;65157;50.082;18.178;2023-04-24T03:22:07;98171.80;;;12.94;61.59
76337;BME280;65157;50.082;18.178;2023-04-24T03:24:34;98170.52;;;12.90;62.06
76337;BME280;65157;50.082;18.178;2023-04-24T03:27:01;98171.95;;;12.87;62.28
76337;BME280;65157;50.082;18.178;2023-04-24T03:29:27;98165.64;;;12.86;62.45
76337;BME280;65157;50.082;18.178;2023-04-24T03:31:54;98163.58;;;12.86;63.17
76337;BME280;65157;50.082;18.178;2023-04-24T03:34:21;98161.77;;;12.83;63.31
76337;BME280;65157;50.082;18.178;2023-04-24T03:36:48;98161.38;;;12.82;63.56
76337;BME280;65157;50.082;18.178;2023-04-24T03:39:17;98160.00;;;12.78;63.43
76337;BME280;65157;50.082;18.178;2023-04-24T03:41:43;98158.65;;;12.77;63.21
76337;BME280;65157;50.082;18.178;2023-04-24T03:44:10;98155.30;;;12.77;63.10
76337;BME280;65157;50.082;18.178;2023-04-24T03:46:37;98155.09;;;12.80;62.88
76337;BME280;65157;50.082;18.178;2023-04-24T03:49:06;98154.83;;;12.84;62.95
76337;BME280;65157;50.082;18.178;2023-04-24T03:51:33;98155.83;;;12.87;62.93
76337;BME280;65157;50.082;18.178;2023-04-24T03:54:00;98148.29;;;12.87;62.95
76337;BME280;65157;50.082;18.178;2023-04-24T03:56:35;98146.99;;;12.90;62.32
76337;BME280;65157;50.082;18.178;2023-04-24T03:59:01;98153.39;;;12.94;62.09
76337;BME280;65157;50.082;18.178;2023-04-24T04:01:28;98162.91;;;12.97;62.09
76337;BME280;65157;50.082;18.178;2023-04-24T04:03:55;98163.02;;;12.99;62.47
76337;BME280;65157;50.082;18.178;2023-04-24T04:06:21;98157.88;;;12.98;62.68
76337;BME280;65157;50.082;18.178;2023-04-24T04:08:48;98157.38;;;12.98;62.65
76337;BME280;65157;50.082;18.178;2023-04-24T04:11:15;98153.87;;;12.95;62.65
76337;BME280;65157;50.082;18.178;2023-04-24T04:13:51;98161.79;;;12.99;62.64
76337;BME280;65157;50.082;18.178;2023-04-24T04:16:17;98164.11;;;12.98;62.55
76337;BME280;65157;50.082;18.178;2023-04-24T04:18:44;98166.05;;;12.98;62.39
76337;BME280;65157;50.082;18.178;2023-04-24T04:21:11;98164.42;;;12.99;62.55
76337;BME280;65157;50.082;18.178;2023-04-24T04:23:38;98167.73;;;12.97;62.61
76337;BME280;65157;50.082;18.178;2023-04-24T04:26:04;98163.81;;;12.97;62.32
76337;BME280;65157;50.082;18.178;2023-04-24T04:28:31;98169.03;;;12.99;61.66
76337;BME280;65157;50.082;18.178;2023-04-24T04:30:58;98167.17;;;13.00;61.18
76337;BME280;65157;50.082;18.178;2023-04-24T04:33:24;98159.41;;;12.97;61.17
76337;BME280;65157;50.082;18.178;2023-04-24T04:35:51;98161.57;;;13.02;61.19
76337;BME280;65157;50.082;18.178;2023-04-24T04:38:18;98160.53;;;13.01;60.64
76337;BME280;65157;50.082;18.178;2023-04-24T04:40:45;98161.77;;;13.04;60.76
76337;BME280;65157;50.082;18.178;2023-04-24T04:43:12;98159.31;;;13.06;60.74
76337;BME280;65157;50.082;18.178;2023-04-24T04:45:39;98162.67;;;13.09;60.45
76337;BME280;65157;50.082;18.178;2023-04-24T04:48:09;98158.35;;;13.11;60.42
76337;BME280;65157;50.082;18.178;2023-04-24T04:50:36;98160.13;;;13.13;61.30
76337;BME280;65157;50.082;18.178;2023-04-24T04:53:03;98158.41;;;13.12;61.18
76337;BME280;65157;50.082;18.178;2023-04-24T04:55:30;98159.48;;;13.12;61.17
76337;BME280;65157;50.082;18.178;2023-04-24T04:57:56;98160.33;;;13.10;61.48
76337;BME280;65157;50.082;18.178;2023-04-24T05:00:24;98157.95;;;13.11;61.47
76337;BME280;65157;50.082;18.178;2023-04-24T05:02:51;98158.95;;;13.14;61.29
76337;BME280;65157;50.082;18.178;2023-04-24T05:05:23;98156.80;;;13.17;61.06
76337;BME280;65157;50.082;18.178;2023-04-24T05:07:50;98157.86;;;13.20;60.75
76337;BME280;65157;50.082;18.178;2023-04-24T05:10:17;98149.92;;;13.22;60.69
76337;BME280;65157;50.082;18.178;2023-04-24T05:12:43;98151.92;;;13.26;60.56
76337;BME280;65157;50.082;18.178;2023-04-24T05:15:10;98156.40;;;13.30;60.56
76337;BME280;65157;50.082;18.178;2023-04-24T05:17:37;98153.50;;;13.34;60.29
76337;BME280;65157;50.082;18.178;2023-04-24T05:20:06;98157.42;;;13.38;60.30
76337;BME280;65157;50.082;18.178;2023-04-24T05:22:36;98160.23;;;13.43;60.37
76337;BME280;65157;50.082;18.178;2023-04-24T05:25:04;98157.55;;;13.49;60.38
76337;BME280;65157;50.082;18.178;2023-04-24T05:27:31;98157.48;;;13.54;60.28
76337;BME280;65157;50.082;18.178;2023-04-24T05:29:57;98148.35;;;13.56;60.17
76337;BME280;65157;50.082;18.178;2023-04-24T05:32:24;98147.30;;;13.61;59.74
76337;BME280;65157;50.082;18.178;2023-04-24T05:34:51;98155.58;;;13.69;59.89
76337;BME280;65157;50.082;18.178;2023-04-24T05:37:18;98158.67;;;13.75;60.34
76337;BME280;65157;50.082;18.178;2023-04-24T05:39:45;98159.41;;;13.80;60.55
76337;BME280;65157;50.082;18.178;2023-04-24T05:42:12;98159.85;;;13.83;60.08
76337;BME280;65157;50.082;18.178;2023-04-24T05:44:46;98161.89;;;13.89;59.94
76337;BME280;65157;50.082;18.178;2023-04-24T05:47:16;98158.77;;;13.91;60.03
76337;BME280;65157;50.082;18.178;2023-04-24T05:49:44;98159.91;;;13.99;60.03
76337;BME280;65157;50.082;18.178;2023-04-24T05:52:11;98162.77;;;14.04;59.65
76337;BME280;65157;50.082;18.178;2023-04-24T05:54:38;98156.38;;;14.08;59.77
76337;BME280;65157;50.082;18.178;2023-04-24T05:57:05;98159.27;;;14.12;59.96
76337;BME280;65157;50.082;18.178;2023-04-24T05:59:32;98158.25;;;14.17;60.92
76337;BME280;65157;50.082;18.178;2023-04-24T06:01:58;98152.16;;;14.20;60.10
76337;BME280;65157;50.082;18.178;2023-04-24T06:04:25;98159.60;;;14.25;59.29
76337;BME280;65157;50.082;18.178;2023-04-24T06:06:52;98156.83;;;14.31;58.89
76337;BME280;65157;50.082;18.178;2023-04-24T06:09:19;98153.84;;;14.33;58.53
76337;BME280;65157;50.082;18.178;2023-04-24T06:11:45;98147.00;;;14.37;59.55
76337;BME280;65157;50.082;18.178;2023-04-24T06:14:12;98158.70;;;14.49;60.67
76337;BME280;65157;50.082;18.178;2023-04-24T06:16:48;98157.27;;;14.54;61.44
76337;BME280;65157;50.082;18.178;2023-04-24T06:19:21;98154.50;;;14.60;61.29
76337;BME280;65157;50.082;18.178;2023-04-24T06:21:48;98146.86;;;14.62;60.94
76337;BME280;65157;50.082;18.178;2023-04-24T06:24:14;98149.70;;;14.74;60.65
76337;BME280;65157;50.082;18.178;2023-04-24T06:26:41;98149.48;;;14.81;60.53
76337;BME280;65157;50.082;18.178;2023-04-24T06:29:11;98146.94;;;14.89;60.06
76337;BME280;65157;50.082;18.178;2023-04-24T06:31:38;98143.58;;;14.95;59.59
76337;BME280;65157;50.082;18.178;2023-04-24T06:34:04;98140.42;;;15.03;59.44
76337;BME280;65157;50.082;18.178;2023-04-24T06:36:31;98136.14;;;15.13;59.23
76337;BME280;65157;50.082;18.178;2023-04-24T06:38:58;98138.42;;;15.22;58.68
76337;BME280;65157;50.082;18.178;2023-04-24T06:41:24;98139.27;;;15.32;57.52
76337;BME280;65157;50.082;18.178;2023-04-24T06:43:51;98134.96;;;15.41;57.33
76337;BME280;65157;50.082;18.178;2023-04-24T06:46:18;98123.41;;;15.48;57.08
76337;BME280;65157;50.082;18.178;2023-04-24T06:48:49;98125.70;;;15.59;57.38
76337;BME280;65157;50.082;18.178;2023-04-24T06:51:16;98127.67;;;15.68;56.72
76337;BME280;65157;50.082;18.178;2023-04-24T06:53:43;98132.98;;;15.75;56.33
76337;BME280;65157;50.082;18.178;2023-04-24T06:56:12;98127.09;;;15.79;55.48
76337;BME280;65157;50.082;18.178;2023-04-24T06:58:39;98127.23;;;15.85;55.71
76337;BME280;65157;50.082;18.178;2023-04-24T07:01:05;98130.25;;;15.89;55.66
76337;BME280;65157;50.082;18.178;2023-04-24T07:03:32;98128.63;;;15.91;55.78
76337;BME280;65157;50.082;18.178;2023-04-24T07:05:59;98122.11;;;15.88;56.20
76337;BME280;65157;50.082;18.178;2023-04-24T07:08:25;98117.55;;;15.89;55.87
76337;BME280;65157;50.082;18.178;2023-04-24T07:10:52;98126.95;;;15.96;55.68
76337;BME280;65157;50.082;18.178;2023-04-24T07:13:19;98123.93;;;15.98;54.98
76337;BME280;65157;50.082;18.178;2023-04-24T07:15:45;98122.02;;;16.02;54.72
76337;BME280;65157;50.082;18.178;2023-04-24T07:18:12;98124.80;;;16.07;55.40
76337;BME280;65157;50.082;18.178;2023-04-24T07:20:51;98127.80;;;16.12;55.61
76337;BME280;65157;50.082;18.178;2023-04-24T07:23:21;98127.10;;;16.18;54.49
76337;BME280;65157;50.082;18.178;2023-04-24T07:25:50;98124.66;;;16.22;53.37
76337;BME280;65157;50.082;18.178;2023-04-24T07:28:22;98124.61;;;16.31;53.96
76337;BME280;65157;50.082;18.178;2023-04-24T07:30:49;98124.05;;;16.35;52.29
76337;BME280;65157;50.082;18.178;2023-04-24T07:33:16;98118.11;;;16.36;50.96
76337;BME280;65157;50.082;18.178;2023-04-24T07:35:46;98133.13;;;16.53;51.00
76337;BME280;65157;50.082;18.178;2023-04-24T07:38:13;98131.23;;;16.62;51.28
76337;BME280;65157;50.082;18.178;2023-04-24T07:40:39;98130.58;;;16.74;51.12
76337;BME280;65157;50.082;18.178;2023-04-24T07:43:06;98125.55;;;16.87;50.51
76337;BME280;65157;50.082;18.178;2023-04-24T07:45:33;98122.92;;;16.99;50.03
76337;BME280;65157;50.082;18.178;2023-04-24T07:47:59;98126.31;;;17.13;49.20
76337;BME280;65157;50.082;18.178;2023-04-24T07:50:26;98115.33;;;17.20;48.98
76337;BME280;65157;50.082;18.178;2023-04-24T07:52:53;98124.03;;;17.41;47.61
76337;BME280;65157;50.082;18.178;2023-04-24T07:55:23;98121.86;;;17.51;47.10
76337;BME280;65157;50.082;18.178;2023-04-24T07:57:50;98121.88;;;17.64;47.87
76337;BME280;65157;50.082;18.178;2023-04-24T08:00:18;98123.27;;;17.76;48.00
76337;BME280;65157;50.082;18.178;2023-04-24T08:02:46;98118.72;;;17.83;46.81
76337;BME280;65157;50.082;18.178;2023-04-24T08:05:13;98116.39;;;17.91;47.63
76337;BME280;65157;50.082;18.178;2023-04-24T08:07:39;98119.32;;;18.01;47.55
76337;BME280;65157;50.082;18.178;2023-04-24T08:10:07;98115.86;;;18.11;46.83
76337;BME280;65157;50.082;18.178;2023-04-24T08:12:38;98115.45;;;18.19;46.44
76337;BME280;65157;50.082;18.178;2023-04-24T08:15:05;98105.29;;;18.20;46.06
76337;BME280;65157;50.082;18.178;2023-04-24T08:17:34;98114.86;;;18.33;45.69
76337;BME280;65157;50.082;18.178;2023-04-24T08:20:05;98115.52;;;18.43;46.00
76337;BME280;65157;50.082;18.178;2023-04-24T08:22:32;98110.80;;;18.52;45.57
76337;BME280;65157;50.082;18.178;2023-04-24T08:24:59;98115.20;;;18.64;45.41
76337;BME280;65157;50.082;18.178;2023-04-24T08:27:27;98110.45;;;18.73;45.71
76337;BME280;65157;50.082;18.178;2023-04-24T08:29:54;98111.06;;;18.83;45.39
76337;BME280;65157;50.082;18.178;2023-04-24T08:32:20;98111.64;;;18.94;44.82
76337;BME280;65157;50.082;18.178;2023-04-24T08:34:48;98112.33;;;19.04;44.58
76337;BME280;65157;50.082;18.178;2023-04-24T08:37:16;98115.23;;;19.14;43.48
76337;BME280;65157;50.082;18.178;2023-04-24T08:39:43;98114.75;;;19.25;43.73
76337;BME280;65157;50.082;18.178;2023-04-24T08:42:11;98115.42;;;19.37;42.98
76337;BME280;65157;50.082;18.178;2023-04-24T08:44:38;98115.27;;;19.48;42.88
76337;BME280;65157;50.082;18.178;2023-04-24T08:47:09;98113.64;;;19.64;42.20
76337;BME280;65157;50.082;18.178;2023-04-24T08:49:37;98112.83;;;19.72;42.03
76337;BME280;65157;50.082;18.178;2023-04-24T08:52:07;98108.91;;;19.84;41.43
76337;BME280;65157;50.082;18.178;2023-04-24T08:54:38;98108.90;;;19.93;41.97
76337;BME280;65157;50.082;18.178;2023-04-24T08:57:07;98104.70;;;20.04;42.34
76337;BME280;65157;50.082;18.178;2023-04-24T08:59:34;98104.83;;;20.19;42.52
76337;BME280;65157;50.082;18.178;2023-04-24T09:02:10;98095.08;;;20.27;41.72
76337;BME280;65157;50.082;18.178;2023-04-24T09:04:40;98101.83;;;20.42;41.09
76337;BME280;65157;50.082;18.178;2023-04-24T09:07:08;98106.42;;;20.48;41.33
76337;BME280;65157;50.082;18.178;2023-04-24T09:09:38;98105.08;;;20.50;41.10
76337;BME280;65157;50.082;18.178;2023-04-24T09:12:05;98107.11;;;20.50;40.00
76337;BME280;65157;50.082;18.178;2023-04-24T09:14:32;98108.39;;;20.46;40.94
76337;BME280;65157;50.082;18.178;2023-04-24T09:16:59;98111.48;;;20.46;40.43
76337;BME280;65157;50.082;18.178;2023-04-24T09:19:26;98105.03;;;20.46;40.36
76337;BME280;65157;50.082;18.178;2023-04-24T09:21:53;98107.15;;;20.50;40.72
76337;BME280;65157;50.082;18.178;2023-04-24T09:24:21;98102.38;;;20.49;40.83
76337;BME280;65157;50.082;18.178;2023-04-24T09:26:49;98103.84;;;20.46;40.73
76337;BME280;65157;50.082;18.178;2023-04-24T09:29:22;98100.71;;;20.53;41.05
76337;BME280;65157;50.082;18.178;2023-04-24T09:31:48;98094.45;;;20.54;40.91
76337;BME280;65157;50.082;18.178;2023-04-24T09:34:21;98098.35;;;20.58;40.79
76337;BME280;65157;50.082;18.178;2023-04-24T09:36:52;98101.64;;;20.59;40.77
76337;BME280;65157;50.082;18.178;2023-04-24T09:39:20;98101.52;;;20.61;40.80
76337;BME280;65157;50.082;18.178;2023-04-24T09:41:48;98101.98;;;20.58;41.10
76337;BME280;65157;50.082;18.178;2023-04-24T09:44:22;98102.62;;;20.54;40.63
76337;BME280;65157;50.082;18.178;2023-04-24T09:46:52;98104.61;;;20.41;41.26
76337;BME280;65157;50.082;18.178;2023-04-24T09:49:23;98103.65;;;20.33;42.11
76337;BME280;65157;50.082;18.178;2023-04-24T09:52:04;98102.35;;;20.18;42.60
76337;BME280;65157;50.082;18.178;2023-04-24T09:54:31;98106.52;;;19.95;43.02
76337;BME280;65157;50.082;18.178;2023-04-24T09:56:58;98110.71;;;19.72;43.15
76337;BME280;65157;50.082;18.178;2023-04-24T09:59:25;98117.73;;;19.50;43.37
76337;BME280;65157;50.082;18.178;2023-04-24T10:01:52;98122.77;;;19.31;43.93
76337;BME280;65157;50.082;18.178;2023-04-24T10:04:25;98121.74;;;19.15;44.44
76337;BME280;65157;50.082;18.178;2023-04-24T10:06:54;98120.90;;;19.04;45.39
76337;BME280;65157;50.082;18.178;2023-04-24T10:09:26;98123.83;;;18.96;45.28
76337;BME280;65157;50.082;18.178;2023-04-24T10:11:57;98119.39;;;18.82;44.37
76337;BME280;65157;50.082;18.178;2023-04-24T10:14:26;98120.51;;;18.69;44.77
76337;BME280;65157;50.082;18.178;2023-04-24T10:16:54;98117.15;;;18.56;45.54
76337;BME280;65157;50.082;18.178;2023-04-24T10:19:22;98116.19;;;18.42;46.34
76337;BME280;65157;50.082;18.178;2023-04-24T10:21:52;98116.20;;;18.22;46.88
76337;BME280;65157;50.082;18.178;2023-04-24T10:24:19;98112.56;;;17.97;47.99
76337;BME280;65157;50.082;18.178;2023-04-24T10:26:46;98108.56;;;17.79;48.99
76337;BME280;65157;50.082;18.178;2023-04-24T10:29:14;98104.55;;;17.66;49.92
76337;BME280;65157;50.082;18.178;2023-04-24T10:31:41;98101.20;;;17.53;50.75
76337;BME280;65157;50.082;18.178;2023-04-24T10:34:09;98099.28;;;17.40;50.62
76337;BME280;65157;50.082;18.178;2023-04-24T10:36:41;98103.13;;;17.25;50.98
76337;BME280;65157;50.082;18.178;2023-04-24T10:39:12;98081.45;;;17.02;52.12
76337;BME280;65157;50.082;18.178;2023-04-24T10:41:40;98100.27;;;17.09;52.32
76337;BME280;65157;50.082;18.178;2023-04-24T10:44:11;98101.40;;;17.05;52.43
76337;BME280;65157;50.082;18.178;2023-04-24T10:46:39;98101.45;;;17.00;52.59
76337;BME280;65157;50.082;18.178;2023-04-24T10:49:08;98104.41;;;16.90;53.78
76337;BME280;65157;50.082;18.178;2023-04-24T10:51:49;98102.05;;;16.78;54.18
76337;BME280;65157;50.082;18.178;2023-04-24T11:00:20;98099.27;;;16.46;54.64
76337;BME280;65157;50.082;18.178;2023-04-24T11:02:47;98099.75;;;16.41;55.02
76337;BME280;65157;50.082;18.178;2023-04-24T11:05:16;98096.78;;;16.35;54.73
76337;BME280;65157;50.082;18.178;2023-04-24T11:08:16;98092.47;;;16.32;54.84
76337;BME280;65157;50.082;18.178;2023-04-24T11:10:55;98093.19;;;16.27;55.25
76337;BME280;65157;50.082;18.178;2023-04-24T11:13:27;98094.69;;;16.24;54.87
76337;BME280;65157;50.082;18.178;2023-04-24T11:16:13;98098.13;;;16.24;54.98
76337;BME280;65157;50.082;18.178;2023-04-24T11:18:42;98098.09;;;16.24;54.95
76337;BME280;65157;50.082;18.178;2023-04-24T11:21:12;98098.80;;;16.24;55.00
76337;BME280;65157;50.082;18.178;2023-04-24T11:23:39;98103.02;;;16.23;55.42
76337;BME280;65157;50.082;18.178;2023-04-24T11:26:10;98099.33;;;16.16;55.85
76337;BME280;65157;50.082;18.178;2023-04-24T11:28:49;98106.23;;;16.14;56.03
76337;BME280;65157;50.082;18.178;2023-04-24T11:34:06;98106.23;;;16.16;56.37
76337;BME280;65157;50.082;18.178;2023-04-24T11:36:34;98110.48;;;16.19;56.29
76337;BME280;65157;50.082;18.178;2023-04-24T11:39:01;98110.15;;;16.20;56.49
76337;BME280;65157;50.082;18.178;2023-04-24T11:41:28;98113.33;;;16.21;56.58
76337;BME280;65157;50.082;18.178;2023-04-24T11:43:56;98111.75;;;16.21;56.73
76337;BME280;65157;50.082;18.178;2023-04-24T11:46:27;98101.20;;;16.13;56.74
76337;BME280;65157;50.082;18.178;2023-04-24T11:48:54;98109.48;;;16.22;56.48
76337;BME280;65157;50.082;18.178;2023-04-24T11:51:22;98111.45;;;16.24;56.04
76337;BME280;65157;50.082;18.178;2023-04-24T11:53:49;98105.98;;;16.21;56.55
76337;BME280;65157;50.082;18.178;2023-04-24T11:56:24;98111.05;;;16.27;56.90
76337;BME280;65157;50.082;18.178;2023-04-24T11:58:54;98112.77;;;16.27;57.01
76337;BME280;65157;50.082;18.178;2023-04-24T12:01:21;98116.63;;;16.28;57.27
76337;BME280;65157;50.082;18.178;2023-04-24T12:03:50;98117.25;;;16.29;57.99
76337;BME280;65157;50.082;18.178;2023-04-24T12:06:17;98118.31;;;16.29;58.34
76337;BME280;65157;50.082;18.178;2023-04-24T12:08:47;98118.27;;;16.30;58.35
76337;BME280;65157;50.082;18.178;2023-04-24T12:11:16;98119.88;;;16.30;57.97
76337;BME280;65157;50.082;18.178;2023-04-24T12:13:43;98118.98;;;16.30;58.15
76337;BME280;65157;50.082;18.178;2023-04-24T12:16:10;98122.98;;;16.31;58.44
76337;BME280;65157;50.082;18.178;2023-04-24T12:18:44;98120.73;;;16.32;58.62
76337;BME280;65157;50.082;18.178;2023-04-24T12:21:15;98122.69;;;16.36;58.85
76337;BME280;65157;50.082;18.178;2023-04-24T12:23:43;98116.27;;;16.32;58.50
76337;BME280;65157;50.082;18.178;2023-04-24T12:26:10;98121.04;;;16.35;58.23
76337;BME280;65157;50.082;18.178;2023-04-24T12:28:39;98119.73;;;16.33;58.57
76337;BME280;65157;50.082;18.178;2023-04-24T12:31:06;98122.98;;;16.31;59.26
76337;BME280;65157;50.082;18.178;2023-04-24T12:33:34;98120.83;;;16.29;58.85
76337;BME280;65157;50.082;18.178;2023-04-24T12:36:02;98121.10;;;16.26;58.82
76337;BME280;65157;50.082;18.178;2023-04-24T12:38:35;98118.68;;;16.23;59.08
76337;BME280;65157;50.082;18.178;2023-04-24T12:41:12;98120.66;;;16.18;59.10
76337;BME280;65157;50.082;18.178;2023-04-24T12:43:51;98116.95;;;16.14;59.60
76337;BME280;65157;50.082;18.178;2023-04-24T12:46:18;98116.87;;;16.09;60.04
76337;BME280;65157;50.082;18.178;2023-04-24T12:48:45;98112.15;;;15.99;60.23
76337;BME280;65157;50.082;18.178;2023-04-24T12:51:11;98116.82;;;15.99;60.53
76337;BME280;65157;50.082;18.178;2023-04-24T12:53:38;98113.02;;;15.93;60.31
76337;BME280;65157;50.082;18.178;2023-04-24T12:56:05;98117.75;;;15.87;59.80
76337;BME280;65157;50.082;18.178;2023-04-24T12:58:37;98119.70;;;15.78;58.84
76337;BME280;65157;50.082;18.178;2023-04-24T13:01:07;98118.72;;;15.69;58.79
76337;BME280;65157;50.082;18.178;2023-04-24T13:03:35;98120.12;;;15.60;59.43